createdAt,value
2023-03-02T00:02:30.453Z,-0.54
2023-03-02T00:05:18.436Z,-0.55
2023-03-02T00:08:09.123Z,-0.59
2023-03-02T00:10:58.663Z,-0.61
2023-03-02T00:13:46.786Z,-0.62
2023-03-02T00:16:35.053Z,-0.64
2023-03-02T00:19:23.046Z,-0.63
2023-03-02T00:22:11.210Z,-0.68
2023-03-02T00:25:01.052Z,-0.70
2023-03-02T00:27:49.107Z,-0.75
2023-03-02T00:30:38.563Z,-0.82
2023-03-02T00:33:26.673Z,-0.81
2023-03-02T00:36:18.871Z,-0.85
2023-03-02T00:39:06.728Z,-0.89
2023-03-02T00:41:56.531Z,-0.96
2023-03-02T00:44:44.605Z,-0.96
2023-03-02T00:47:34.090Z,-0.96
2023-03-02T00:50:22.326Z,-0.99
2023-03-02T00:53:10.295Z,-1.04
2023-03-02T00:55:58.217Z,-1.09
2023-03-02T00:58:47.323Z,-1.15
2023-03-02T01:01:35.244Z,-1.16
2023-03-02T01:04:23.178Z,-1.15
2023-03-02T01:07:13.241Z,-1.20
2023-03-02T01:10:01.315Z,-1.23
2023-03-02T01:12:49.390Z,-1.22
2023-03-02T01:15:38.695Z,-1.30
2023-03-02T01:18:26.317Z,-1.37
2023-03-02T01:21:16.452Z,-1.43
2023-03-02T01:24:04.220Z,-1.46
2023-03-02T01:26:51.880Z,-1.48
2023-03-02T01:29:39.940Z,-1.54
2023-03-02T01:32:29.121Z,-1.59
2023-03-02T01:35:17.263Z,-1.61
2023-03-02T01:38:05.029Z,-1.66
2023-03-02T01:40:52.892Z,-1.71
2023-03-02T01:43:41.184Z,-1.74
2023-03-02T01:46:32.548Z,-1.74
2023-03-02T01:49:21.833Z,-1.78
2023-03-02T01:52:10.512Z,-1.80
2023-03-02T01:55:01.999Z,-1.83
2023-03-02T01:57:52.225Z,-1.86
2023-03-02T02:00:41.160Z,-1.85
2023-03-02T02:03:31.731Z,-1.82
2023-03-02T02:06:25.721Z,-1.84
2023-03-02T02:09:17.413Z,-1.89
2023-03-02T02:12:05.905Z,-1.88
2023-03-02T02:14:54.007Z,-1.86
2023-03-02T02:17:42.511Z,-1.86
2023-03-02T02:20:36.732Z,-1.90
2023-03-02T02:23:34.028Z,-1.93
2023-03-02T02:26:27.378Z,-1.97
2023-03-02T02:29:22.627Z,-2.00
2023-03-02T02:32:16.251Z,-1.95
2023-03-02T02:35:08.875Z,-1.92
2023-03-02T02:38:03.369Z,-1.91
2023-03-02T02:40:55.869Z,-1.88
2023-03-02T02:43:45.430Z,-1.90
2023-03-02T02:46:34.517Z,-1.92
2023-03-02T02:49:33.417Z,-1.95
2023-03-02T02:52:23.650Z,-1.99
2023-03-02T02:55:17.087Z,-2.02
2023-03-02T02:58:10.409Z,-2.08
2023-03-02T03:01:00.975Z,-2.11
2023-03-02T03:03:53.916Z,-2.12
2023-03-02T03:06:49.907Z,-2.16
2023-03-02T03:09:37.859Z,-2.17
2023-03-02T03:12:27.906Z,-2.21
2023-03-02T03:15:17.084Z,-2.25
2023-03-02T03:18:06.184Z,-2.30
2023-03-02T03:20:53.993Z,-2.32
2023-03-02T03:23:41.889Z,-2.32
2023-03-02T03:26:30.342Z,-2.34
2023-03-02T03:29:19.358Z,-2.37
2023-03-02T03:32:07.875Z,-2.39
2023-03-02T03:34:57.189Z,-2.41
2023-03-02T03:37:45.772Z,-2.43
2023-03-02T03:40:34.773Z,-2.46
2023-03-02T03:43:22.898Z,-2.47
2023-03-02T03:46:11.020Z,-2.47
2023-03-02T03:48:59.540Z,-2.49
2023-03-02T03:51:48.868Z,-2.49
2023-03-02T03:54:36.840Z,-2.51
2023-03-02T03:57:26.917Z,-2.51
2023-03-02T04:00:18.241Z,-2.55
2023-03-02T04:03:06.380Z,-2.52
2023-03-02T04:05:54.370Z,-2.45
2023-03-02T04:08:43.922Z,-2.40
2023-03-02T04:11:32.212Z,-2.36
2023-03-02T04:14:21.889Z,-2.35
2023-03-02T04:17:09.777Z,-2.26
2023-03-02T04:19:58.640Z,-2.31
2023-03-02T04:22:48.417Z,-2.34
2023-03-02T04:25:37.453Z,-2.42
2023-03-02T04:28:25.428Z,-2.39
2023-03-02T04:31:13.657Z,-2.37
2023-03-02T04:34:04.172Z,-2.42
2023-03-02T04:36:52.370Z,-2.42
2023-03-02T04:39:40.076Z,-2.49
2023-03-02T04:42:29.409Z,-2.46
2023-03-02T04:45:20.303Z,-2.45
2023-03-02T04:48:09.107Z,-2.48
2023-03-02T04:50:56.875Z,-2.57
2023-03-02T04:53:44.787Z,-2.58
2023-03-02T04:56:33.837Z,-2.61
2023-03-02T04:59:28.039Z,-2.63
2023-03-02T05:02:18.467Z,-2.64
2023-03-02T05:05:08.193Z,-2.63
2023-03-02T05:07:59.476Z,-2.66
2023-03-02T05:10:47.487Z,-2.71
2023-03-02T05:13:38.306Z,-2.74
2023-03-02T05:16:29.602Z,-2.74
2023-03-02T05:19:17.799Z,-2.75
2023-03-02T05:22:05.548Z,-2.76
2023-03-02T05:24:53.425Z,-2.75
2023-03-02T05:27:41.532Z,-2.74
2023-03-02T05:30:30.927Z,-2.72
2023-03-02T05:33:20.702Z,-2.73
2023-03-02T05:36:08.851Z,-2.67
2023-03-02T05:38:56.976Z,-2.76
2023-03-02T05:41:44.903Z,-2.77
2023-03-02T05:44:32.636Z,-2.78
2023-03-02T05:47:20.533Z,-2.82
2023-03-02T05:50:11.610Z,-2.80
2023-03-02T05:53:00.242Z,-2.82
2023-03-02T05:55:48.622Z,-2.78
2023-03-02T05:58:36.486Z,-2.81
2023-03-02T06:01:24.383Z,-2.82
2023-03-02T06:04:12.310Z,-2.79
2023-03-02T06:07:01.887Z,-2.76
2023-03-02T06:09:51.109Z,-2.69
2023-03-02T06:12:39.310Z,-2.67
2023-03-02T06:15:31.821Z,-2.73
2023-03-02T06:18:19.581Z,-2.69
2023-03-02T06:21:09.057Z,-2.70
2023-03-02T06:23:58.235Z,-2.63
2023-03-02T06:26:46.125Z,-2.64
2023-03-02T06:29:33.783Z,-2.62
2023-03-02T06:32:22.112Z,-2.72
2023-03-02T06:35:11.510Z,-2.68
2023-03-02T06:37:59.373Z,-2.67
2023-03-02T06:40:48.710Z,-2.58
2023-03-02T06:43:36.747Z,-2.61
2023-03-02T06:46:24.826Z,-2.71
2023-03-02T06:49:14.258Z,-2.71
2023-03-02T06:52:02.298Z,-2.69
2023-03-02T06:54:50.647Z,-2.66
2023-03-02T06:57:40.468Z,-2.53
2023-03-02T07:00:29.012Z,-2.53
2023-03-02T07:03:17.385Z,-2.53
2023-03-02T07:06:05.424Z,-2.44
2023-03-02T07:08:53.323Z,-2.42
2023-03-02T07:11:41.769Z,-2.44
2023-03-02T07:14:30.816Z,-2.39
2023-03-02T07:17:18.487Z,-2.33
2023-03-02T07:20:07.069Z,-2.15
2023-03-02T07:22:55.056Z,-2.07
2023-03-02T07:25:43.929Z,-1.97
2023-03-02T07:28:36.148Z,-1.84
2023-03-02T07:31:25.298Z,-1.72
2023-03-02T07:34:13.217Z,-1.48
2023-03-02T07:37:01.122Z,-1.22
2023-03-02T07:39:49.693Z,-1.05
2023-03-02T07:42:37.486Z,-0.87
2023-03-02T07:45:26.314Z,-0.28
2023-03-02T07:48:15.404Z,0.28
2023-03-02T07:51:05.144Z,0.59
2023-03-02T07:53:52.990Z,1.05
2023-03-02T07:56:40.957Z,0.98
2023-03-02T07:59:29.472Z,1.33
2023-03-02T08:02:20.320Z,1.51
2023-03-02T08:05:10.160Z,1.69
2023-03-02T08:07:58.168Z,1.93
2023-03-02T08:10:46.254Z,2.03
2023-03-02T08:13:35.398Z,2.36
2023-03-02T08:16:25.606Z,2.63
2023-03-02T08:19:13.281Z,2.78
2023-03-02T08:22:02.839Z,2.87
2023-03-02T08:24:50.751Z,2.86
2023-03-02T08:27:40.207Z,2.97
2023-03-02T08:30:27.977Z,3.08
2023-03-02T08:33:15.907Z,3.26
2023-03-02T08:36:08.270Z,3.29
2023-03-02T08:38:57.353Z,3.33
2023-03-02T08:41:45.205Z,3.37
2023-03-02T08:44:33.042Z,3.63
2023-03-02T08:47:20.672Z,3.69
2023-03-02T08:50:09.593Z,3.71
2023-03-02T08:52:57.378Z,3.84
2023-03-02T08:55:46.730Z,4.01
2023-03-02T08:58:34.768Z,4.15
2023-03-02T09:01:24.736Z,4.36
2023-03-02T09:04:13.303Z,4.37
2023-03-02T09:07:01.431Z,4.22
2023-03-02T09:09:49.564Z,4.60
2023-03-02T09:12:38.579Z,4.78
2023-03-02T09:15:26.406Z,5.00
2023-03-02T09:18:14.442Z,5.11
2023-03-02T09:21:05.159Z,5.25
2023-03-02T09:23:55.718Z,4.98
2023-03-02T09:26:43.470Z,5.18
2023-03-02T09:29:32.698Z,5.25
2023-03-02T09:32:21.117Z,5.30
2023-03-02T09:35:09.836Z,5.44
2023-03-02T09:37:58.165Z,5.47
2023-03-02T09:41:06.483Z,5.47
2023-03-02T09:44:03.044Z,5.79
2023-03-02T09:46:57.222Z,5.73
2023-03-02T09:49:56.477Z,6.02
2023-03-02T09:52:53.477Z,6.31
2023-03-02T09:55:41.565Z,6.72
2023-03-02T09:58:35.396Z,6.93
2023-03-02T10:01:35.374Z,7.31
2023-03-02T10:04:32.729Z,7.37
2023-03-02T10:07:27.162Z,7.46
2023-03-02T10:10:29.425Z,7.85
2023-03-02T10:13:24.236Z,8.02
2023-03-02T10:16:24.905Z,8.32
2023-03-02T10:19:22.095Z,8.50
2023-03-02T10:22:19.564Z,8.87
2023-03-02T10:25:25.074Z,9.12
2023-03-02T10:28:20.167Z,9.28
2023-03-02T10:31:14.004Z,9.49
2023-03-02T10:34:02.217Z,9.71
2023-03-02T10:36:50.070Z,9.77
2023-03-02T10:39:39.243Z,9.87
2023-03-02T10:42:35.945Z,10.05
2023-03-02T10:45:29.185Z,10.20
2023-03-02T10:48:17.123Z,10.44
2023-03-02T10:51:04.933Z,10.76
2023-03-02T10:54:03.317Z,11.02
2023-03-02T10:56:56.308Z,11.27
2023-03-02T10:59:46.892Z,11.55
2023-03-02T11:02:37.478Z,11.93
2023-03-02T11:05:31.259Z,12.26
2023-03-02T11:08:21.186Z,12.63
2023-03-02T11:11:23.539Z,12.95
2023-03-02T11:14:16.934Z,13.19
2023-03-02T11:17:24.037Z,13.34
2023-03-02T11:20:18.511Z,13.78
2023-03-02T11:23:15.584Z,14.12
2023-03-02T11:26:09.180Z,14.49
2023-03-02T11:29:02.309Z,15.01
2023-03-02T11:31:54.629Z,14.93
2023-03-02T11:34:47.733Z,14.98
2023-03-02T11:37:40.908Z,14.53
2023-03-02T11:40:32.099Z,15.13
2023-03-02T11:43:19.852Z,15.82
2023-03-02T11:46:21.628Z,15.83
2023-03-02T11:49:18.058Z,16.33
2023-03-02T11:52:07.590Z,16.04
2023-03-02T11:55:00.000Z,16.48
2023-03-02T11:57:52.080Z,16.79
2023-03-02T12:00:42.532Z,17.03
2023-03-02T12:03:41.851Z,17.12
2023-03-02T12:06:38.248Z,17.67
2023-03-02T12:09:35.708Z,17.83
2023-03-02T12:12:48.137Z,16.80
2023-03-02T12:15:43.941Z,17.58
2023-03-02T12:18:47.068Z,17.00
2023-03-02T12:21:44.087Z,17.25
2023-03-02T12:24:33.521Z,17.91
2023-03-02T12:27:28.328Z,18.16
2023-03-02T12:30:26.645Z,18.20
2023-03-02T12:33:21.475Z,18.41
2023-03-02T12:36:15.313Z,18.27
2023-03-02T12:39:21.818Z,18.77
2023-03-02T12:42:38.813Z,18.97
2023-03-02T12:45:42.734Z,19.41
2023-03-02T12:48:37.220Z,19.25
2023-03-02T12:51:26.968Z,19.27
2023-03-02T12:54:17.823Z,19.88
2023-03-02T12:57:17.733Z,20.11
2023-03-02T13:00:16.847Z,19.80
2023-03-02T13:03:07.183Z,20.00
2023-03-02T13:06:03.536Z,20.04
2023-03-02T13:08:54.771Z,19.81
2023-03-02T13:11:44.724Z,19.14
2023-03-02T13:14:32.831Z,18.42
2023-03-02T13:17:26.903Z,18.79
2023-03-02T13:20:16.525Z,19.08
2023-03-02T13:23:05.582Z,19.12
2023-03-02T13:25:55.794Z,19.04
2023-03-02T13:28:45.111Z,19.34
2023-03-02T13:31:32.975Z,19.34
2023-03-02T13:34:24.111Z,19.62
2023-03-02T13:37:22.820Z,19.71
2023-03-02T13:40:33.705Z,19.80
2023-03-02T13:43:32.336Z,20.07
2023-03-02T13:46:40.446Z,19.95
2023-03-02T13:49:32.837Z,19.27
2023-03-02T13:52:27.911Z,19.54
2023-03-02T13:55:18.386Z,19.68
2023-03-02T13:58:10.656Z,19.32
2023-03-02T14:00:58.753Z,18.91
2023-03-02T14:03:48.257Z,19.18
2023-03-02T14:06:36.283Z,18.46
2023-03-02T14:09:27.009Z,18.73
2023-03-02T14:12:25.356Z,18.24
2023-03-02T14:15:16.505Z,17.40
2023-03-02T14:18:04.685Z,18.04
2023-03-02T14:20:54.264Z,18.24
2023-03-02T14:23:42.558Z,18.72
2023-03-02T14:26:34.854Z,18.64
2023-03-02T14:29:26.104Z,18.81
2023-03-02T14:32:16.123Z,18.80
2023-03-02T14:35:04.053Z,17.80
2023-03-02T14:37:53.495Z,18.02
2023-03-02T14:40:45.046Z,18.27
2023-03-02T14:43:32.993Z,18.19
2023-03-02T14:46:21.834Z,17.52
2023-03-02T14:49:09.906Z,17.98
2023-03-02T14:52:01.754Z,17.74
2023-03-02T14:54:56.832Z,17.35
2023-03-02T14:57:44.911Z,17.30
2023-03-02T15:00:32.955Z,17.37
2023-03-02T15:03:25.479Z,16.95
2023-03-02T15:06:24.204Z,16.69
2023-03-02T15:09:13.425Z,17.09
2023-03-02T15:12:03.065Z,17.42
2023-03-02T15:14:52.702Z,17.52
2023-03-02T15:17:42.174Z,17.14
2023-03-02T15:20:30.381Z,17.18
2023-03-02T15:23:18.125Z,17.27
2023-03-02T15:26:06.328Z,17.20
2023-03-02T15:28:56.039Z,17.05
2023-03-02T15:31:43.876Z,17.01
2023-03-02T15:34:31.972Z,16.85
2023-03-02T15:37:20.169Z,17.02
2023-03-02T15:40:09.706Z,17.14
2023-03-02T15:42:59.138Z,17.36
2023-03-02T15:45:48.597Z,17.33
2023-03-02T15:48:36.932Z,17.28
2023-03-02T15:51:25.026Z,17.13
2023-03-02T15:54:13.008Z,17.15
2023-03-02T15:57:00.811Z,17.08
2023-03-02T15:59:48.775Z,16.99
2023-03-02T16:02:38.186Z,16.98
2023-03-02T16:05:26.186Z,16.69
2023-03-02T16:08:14.150Z,16.77
2023-03-02T16:11:04.224Z,16.73
2023-03-02T16:13:52.329Z,16.63
2023-03-02T16:16:40.209Z,16.46
2023-03-02T16:19:29.482Z,16.24
2023-03-02T16:22:17.424Z,15.82
2023-03-02T16:25:05.442Z,15.25
2023-03-02T16:27:55.001Z,15.28
2023-03-02T16:30:44.653Z,15.13
2023-03-02T16:33:32.579Z,15.10
2023-03-02T16:36:22.526Z,14.91
2023-03-02T16:39:11.460Z,14.69
2023-03-02T16:41:59.397Z,14.55
2023-03-02T16:44:48.649Z,14.39
2023-03-02T16:47:37.064Z,14.18
2023-03-02T16:50:32.165Z,14.03
2023-03-02T16:53:23.023Z,13.83
2023-03-02T16:56:11.352Z,13.67
2023-03-02T16:59:00.188Z,13.46
2023-03-02T17:01:48.159Z,13.26
2023-03-02T17:04:37.259Z,13.07
2023-03-02T17:07:25.561Z,12.80
2023-03-02T17:10:19.027Z,12.63
2023-03-02T17:13:07.692Z,12.47
2023-03-02T17:15:55.896Z,12.19
2023-03-02T17:18:46.860Z,12.05
2023-03-02T17:21:35.623Z,11.90
2023-03-02T17:24:26.319Z,11.76
2023-03-02T17:27:24.424Z,11.56
2023-03-02T17:30:14.074Z,11.38
2023-03-02T17:33:01.977Z,11.22
2023-03-02T17:35:50.133Z,11.06
2023-03-02T17:38:37.975Z,10.89
2023-03-02T17:41:26.042Z,10.74
2023-03-02T17:44:15.448Z,10.55
2023-03-02T17:47:05.360Z,10.39
2023-03-02T17:49:53.147Z,10.24
2023-03-02T17:52:41.192Z,10.10
2023-03-02T17:55:29.382Z,9.94
2023-03-02T17:58:18.790Z,9.81
2023-03-02T18:01:08.701Z,9.67
2023-03-02T18:03:56.910Z,9.53
2023-03-02T18:06:44.659Z,9.34
2023-03-02T18:09:32.671Z,9.26
2023-03-02T18:12:20.518Z,9.08
2023-03-02T18:15:09.453Z,8.94
2023-03-02T18:17:59.128Z,8.77
2023-03-02T18:20:46.807Z,8.59
2023-03-02T18:23:35.219Z,8.46
2023-03-02T18:26:23.676Z,8.38
2023-03-02T18:29:11.873Z,8.23
2023-03-02T18:31:59.903Z,8.18
2023-03-02T18:34:49.360Z,8.09
2023-03-02T18:37:37.251Z,7.94
2023-03-02T18:40:25.036Z,7.83
2023-03-02T18:43:13.101Z,7.76
2023-03-02T18:46:00.791Z,7.60
2023-03-02T18:48:49.689Z,7.51
2023-03-02T18:51:38.795Z,7.39
2023-03-02T18:54:26.749Z,7.31
2023-03-02T18:57:15.032Z,7.27
2023-03-02T19:00:03.359Z,7.24
2023-03-02T19:02:51.465Z,7.19
2023-03-02T19:05:39.552Z,7.01
2023-03-02T19:08:29.559Z,6.99
2023-03-02T19:11:17.526Z,6.90
2023-03-02T19:14:05.528Z,6.85
2023-03-02T19:16:53.578Z,6.83
2023-03-02T19:19:43.602Z,6.64
2023-03-02T19:22:32.782Z,6.65
2023-03-02T19:25:22.420Z,6.61
2023-03-02T19:28:10.925Z,6.57
2023-03-02T19:31:02.834Z,6.53
2023-03-02T19:33:50.642Z,6.46
2023-03-02T19:36:38.827Z,6.43
2023-03-02T19:39:26.665Z,6.36
2023-03-02T19:42:15.901Z,6.30
2023-03-02T19:45:04.283Z,6.18
2023-03-02T19:47:52.414Z,6.11
2023-03-02T19:50:40.404Z,6.02
2023-03-02T19:53:28.597Z,5.96
2023-03-02T19:56:17.617Z,5.88
2023-03-02T19:59:07.007Z,5.81
2023-03-02T20:01:55.608Z,5.73
2023-03-02T20:04:45.068Z,5.68
2023-03-02T20:07:32.766Z,5.62
2023-03-02T20:10:28.219Z,5.54
2023-03-02T20:13:16.256Z,5.48
2023-03-02T20:16:05.480Z,5.45
2023-03-02T20:18:54.297Z,5.35
2023-03-02T20:21:42.033Z,5.29
2023-03-02T20:24:30.009Z,5.21
2023-03-02T20:27:17.923Z,5.10
2023-03-02T20:30:11.491Z,5.09
2023-03-02T20:33:01.727Z,5.00
2023-03-02T20:35:50.955Z,4.99
2023-03-02T20:38:45.604Z,4.98
2023-03-02T20:41:33.637Z,4.95
2023-03-02T20:44:23.290Z,4.87
2023-03-02T20:47:15.649Z,4.83
2023-03-02T20:50:06.528Z,4.78
2023-03-02T20:52:54.556Z,4.71
2023-03-02T20:55:42.467Z,4.66
2023-03-02T20:58:30.515Z,4.69
2023-03-02T21:01:19.444Z,4.69
2023-03-02T21:04:07.333Z,4.60
2023-03-02T21:06:56.623Z,4.55
2023-03-02T21:09:44.841Z,4.48
2023-03-02T21:12:33.299Z,4.45
2023-03-02T21:15:23.866Z,4.40
2023-03-02T21:18:12.481Z,4.32
2023-03-02T21:21:01.180Z,4.21
2023-03-02T21:23:50.504Z,4.14
2023-03-02T21:26:38.350Z,4.08
2023-03-02T21:29:27.600Z,4.08
2023-03-02T21:32:16.234Z,4.03
2023-03-02T21:35:07.835Z,3.97
2023-03-02T21:37:59.309Z,3.94
2023-03-02T21:40:48.303Z,3.86
2023-03-02T21:43:36.153Z,3.79
2023-03-02T21:46:25.001Z,3.75
2023-03-02T21:49:15.644Z,3.74
2023-03-02T21:52:04.049Z,3.70
2023-03-02T21:54:52.178Z,3.64
2023-03-02T21:57:41.821Z,3.58
2023-03-02T22:00:32.622Z,3.54
2023-03-02T22:03:20.695Z,3.48
2023-03-02T22:06:08.832Z,3.45
2023-03-02T22:08:58.066Z,3.42
2023-03-02T22:11:47.471Z,3.38
2023-03-02T22:14:36.531Z,3.34
2023-03-02T22:17:26.694Z,3.30
2023-03-02T22:20:18.744Z,3.26
2023-03-02T22:23:13.209Z,3.21
2023-03-02T22:26:14.100Z,3.15
2023-03-02T22:29:13.545Z,3.07
2023-03-02T22:32:16.363Z,3.01
2023-03-02T22:35:19.097Z,2.92
2023-03-02T22:38:13.690Z,2.92
2023-03-02T22:41:01.452Z,2.87
2023-03-02T22:43:49.488Z,2.80
2023-03-02T22:46:38.137Z,2.75
2023-03-02T22:49:28.363Z,2.71
2023-03-02T22:52:20.575Z,2.64
2023-03-02T22:55:31.800Z,2.57
2023-03-02T22:58:32.806Z,2.57
2023-03-02T23:01:23.381Z,2.54
2023-03-02T23:04:20.133Z,2.49
2023-03-02T23:07:17.704Z,2.50
2023-03-02T23:10:05.855Z,2.41
2023-03-02T23:12:53.593Z,2.41
2023-03-02T23:15:42.047Z,2.35
2023-03-02T23:18:33.803Z,2.34
2023-03-02T23:21:24.225Z,2.27
2023-03-02T23:24:13.425Z,2.20
2023-03-02T23:27:01.498Z,2.16
2023-03-02T23:29:49.724Z,2.13
2023-03-02T23:32:37.778Z,2.09
2023-03-02T23:35:25.915Z,2.05
2023-03-02T23:38:13.584Z,2.05
2023-03-02T23:41:02.992Z,2.07
2023-03-02T23:43:50.795Z,2.07
2023-03-02T23:46:38.411Z,2.08
2023-03-02T23:49:26.279Z,2.04
2023-03-02T23:52:14.231Z,1.99
2023-03-02T23:55:02.321Z,1.94
2023-03-02T23:57:51.832Z,1.84
